sensor_id;sensor_type;location;lat;lon;timestamp;temperature;humidity
5881;DHT22;2966;52.598;10.928;2022-08-03T00:00:58;20.50;99.90
5881;DHT22;2966;52.598;10.928;2022-08-03T00:03:25;20.50;99.90
5881;DHT22;2966;52.598;10.928;2022-08-03T00:05:55;20.40;99.90
5881;DHT22;2966;52.598;10.928;2022-08-03T00:08:23;20.40;99.90
5881;DHT22;2966;52.598;10.928;2022-08-03T00:10:49;20.30;99.90
5881;DHT22;2966;52.598;10.928;2022-08-03T00:13:19;20.20;99.90
5881;DHT22;2966;52.598;10.928;2022-08-03T00:15:45;20.20;99.90
5881;DHT22;2966;52.598;10.928;2022-08-03T00:18:12;20.00;99.90
5881;DHT22;2966;52.598;10.928;2022-08-03T00:20:39;19.90;99.90
5881;DHT22;2966;52.598;10.928;2022-08-03T00:23:10;19.80;99.90
5881;DHT22;2966;52.598;10.928;2022-08-03T00:25:38;19.70;99.90
5881;DHT22;2966;52.598;10.928;2022-08-03T00:28:05;19.60;99.90
5881;DHT22;2966;52.598;10.928;2022-08-03T00:30:35;19.50;99.90
5881;DHT22;2966;52.598;10.928;2022-08-03T00:33:02;19.40;99.90
5881;DHT22;2966;52.598;10.928;2022-08-03T00:35:29;19.30;99.90
5881;DHT22;2966;52.598;10.928;2022-08-03T00:37:56;19.20;99.90
5881;DHT22;2966;52.598;10.928;2022-08-03T00:40:23;19.20;99.90
5881;DHT22;2966;52.598;10.928;2022-08-03T00:42:52;19.10;99.90
5881;DHT22;2966;52.598;10.928;2022-08-03T00:45:20;19.00;99.90
5881;DHT22;2966;52.598;10.928;2022-08-03T00:47:48;19.00;99.90
5881;DHT22;2966;52.598;10.928;2022-08-03T00:50:15;18.90;99.90
5881;DHT22;2966;52.598;10.928;2022-08-03T00:52:44;18.90;99.90
5881;DHT22;2966;52.598;10.928;2022-08-03T00:55:11;18.80;99.90
5881;DHT22;2966;52.598;10.928;2022-08-03T00:57:38;18.70;99.90
5881;DHT22;2966;52.598;10.928;2022-08-03T01:00:09;18.70;99.90
5881;DHT22;2966;52.598;10.928;2022-08-03T01:02:36;18.70;99.90
5881;DHT22;2966;52.598;10.928;2022-08-03T01:05:03;18.70;99.90
5881;DHT22;2966;52.598;10.928;2022-08-03T01:07:40;18.60;99.90
5881;DHT22;2966;52.598;10.928;2022-08-03T01:10:14;18.60;99.90
5881;DHT22;2966;52.598;10.928;2022-08-03T01:12:47;18.50;99.90
5881;DHT22;2966;52.598;10.928;2022-08-03T01:15:24;18.50;99.90
5881;DHT22;2966;52.598;10.928;2022-08-03T01:17:56;18.50;99.90
5881;DHT22;2966;52.598;10.928;2022-08-03T01:20:28;18.40;99.90
5881;DHT22;2966;52.598;10.928;2022-08-03T01:23:36;18.40;99.90
5881;DHT22;2966;52.598;10.928;2022-08-03T01:26:27;18.30;99.90
5881;DHT22;2966;52.598;10.928;2022-08-03T01:29:12;18.20;99.90
5881;DHT22;2966;52.598;10.928;2022-08-03T01:31:52;18.30;99.90
5881;DHT22;2966;52.598;10.928;2022-08-03T01:34:19;18.30;99.90
5881;DHT22;2966;52.598;10.928;2022-08-03T01:36:50;18.20;99.90
5881;DHT22;2966;52.598;10.928;2022-08-03T01:39:18;18.20;99.90
5881;DHT22;2966;52.598;10.928;2022-08-03T01:41:49;18.10;99.90
5881;DHT22;2966;52.598;10.928;2022-08-03T01:44:20;18.10;99.90
5881;DHT22;2966;52.598;10.928;2022-08-03T01:46:49;18.00;99.90
5881;DHT22;2966;52.598;10.928;2022-08-03T01:49:16;18.00;99.90
5881;DHT22;2966;52.598;10.928;2022-08-03T01:51:47;18.00;99.90
5881;DHT22;2966;52.598;10.928;2022-08-03T01:54:16;17.90;99.90
5881;DHT22;2966;52.598;10.928;2022-08-03T01:56:43;17.90;99.90
5881;DHT22;2966;52.598;10.928;2022-08-03T01:59:11;17.80;99.90
5881;DHT22;2966;52.598;10.928;2022-08-03T02:01:40;17.80;99.90
5881;DHT22;2966;52.598;10.928;2022-08-03T02:04:10;17.70;99.90
5881;DHT22;2966;52.598;10.928;2022-08-03T02:06:39;17.70;99.90
5881;DHT22;2966;52.598;10.928;2022-08-03T02:09:07;17.70;99.90
5881;DHT22;2966;52.598;10.928;2022-08-03T02:11:35;17.60;99.90
5881;DHT22;2966;52.598;10.928;2022-08-03T02:14:04;17.60;99.90
5881;DHT22;2966;52.598;10.928;2022-08-03T02:16:32;17.60;99.90
5881;DHT22;2966;52.598;10.928;2022-08-03T02:19:02;17.50;99.90
5881;DHT22;2966;52.598;10.928;2022-08-03T02:21:36;17.50;99.90
5881;DHT22;2966;52.598;10.928;2022-08-03T02:24:03;17.40;99.90
5881;DHT22;2966;52.598;10.928;2022-08-03T02:26:31;17.30;99.90
5881;DHT22;2966;52.598;10.928;2022-08-03T02:29:04;17.30;99.90
5881;DHT22;2966;52.598;10.928;2022-08-03T02:31:33;17.30;99.90
5881;DHT22;2966;52.598;10.928;2022-08-03T02:34:08;17.20;99.90
5881;DHT22;2966;52.598;10.928;2022-08-03T02:36:40;17.20;99.90
5881;DHT22;2966;52.598;10.928;2022-08-03T02:39:10;17.20;99.90
5881;DHT22;2966;52.598;10.928;2022-08-03T02:41:44;17.30;99.90
5881;DHT22;2966;52.598;10.928;2022-08-03T02:44:11;17.30;99.90
5881;DHT22;2966;52.598;10.928;2022-08-03T02:46:43;17.30;99.90
5881;DHT22;2966;52.598;10.928;2022-08-03T02:49:12;17.20;99.90
5881;DHT22;2966;52.598;10.928;2022-08-03T02:51:44;17.20;99.90
5881;DHT22;2966;52.598;10.928;2022-08-03T02:54:15;17.10;99.90
5881;DHT22;2966;52.598;10.928;2022-08-03T02:56:44;17.10;99.90
5881;DHT22;2966;52.598;10.928;2022-08-03T02:59:12;17.00;99.90
5881;DHT22;2966;52.598;10.928;2022-08-03T03:01:40;17.00;99.90
5881;DHT22;2966;52.598;10.928;2022-08-03T03:04:09;16.90;99.90
5881;DHT22;2966;52.598;10.928;2022-08-03T03:06:37;16.90;99.90
5881;DHT22;2966;52.598;10.928;2022-08-03T03:09:05;16.90;99.90
5881;DHT22;2966;52.598;10.928;2022-08-03T03:11:35;16.80;99.90
5881;DHT22;2966;52.598;10.928;2022-08-03T03:14:03;16.80;99.90
5881;DHT22;2966;52.598;10.928;2022-08-03T03:16:31;16.70;99.90
5881;DHT22;2966;52.598;10.928;2022-08-03T03:18:58;16.70;99.90
5881;DHT22;2966;52.598;10.928;2022-08-03T03:21:26;16.70;99.90
5881;DHT22;2966;52.598;10.928;2022-08-03T03:23:54;16.70;99.90
5881;DHT22;2966;52.598;10.928;2022-08-03T03:26:22;16.70;99.90
5881;DHT22;2966;52.598;10.928;2022-08-03T03:28:49;16.60;99.90
5881;DHT22;2966;52.598;10.928;2022-08-03T03:31:15;16.60;99.90
5881;DHT22;2966;52.598;10.928;2022-08-03T03:33:42;16.60;99.90
5881;DHT22;2966;52.598;10.928;2022-08-03T03:36:09;16.50;99.90
5881;DHT22;2966;52.598;10.928;2022-08-03T03:38:36;16.50;99.90
5881;DHT22;2966;52.598;10.928;2022-08-03T03:41:04;16.50;99.90
5881;DHT22;2966;52.598;10.928;2022-08-03T03:43:32;16.40;99.90
5881;DHT22;2966;52.598;10.928;2022-08-03T03:45:59;16.40;99.90
5881;DHT22;2966;52.598;10.928;2022-08-03T03:48:28;16.40;99.90
5881;DHT22;2966;52.598;10.928;2022-08-03T03:50:55;16.40;99.90
5881;DHT22;2966;52.598;10.928;2022-08-03T03:53:22;16.40;99.90
5881;DHT22;2966;52.598;10.928;2022-08-03T03:55:51;16.40;99.90
5881;DHT22;2966;52.598;10.928;2022-08-03T03:58:19;16.40;99.90
5881;DHT22;2966;52.598;10.928;2022-08-03T04:00:47;16.40;99.90
5881;DHT22;2966;52.598;10.928;2022-08-03T04:03:14;16.40;99.90
5881;DHT22;2966;52.598;10.928;2022-08-03T04:05:40;16.40;99.90
5881;DHT22;2966;52.598;10.928;2022-08-03T04:08:25;16.50;99.90
5881;DHT22;2966;52.598;10.928;2022-08-03T04:11:13;16.50;99.90
5881;DHT22;2966;52.598;10.928;2022-08-03T04:13:44;16.50;99.90
5881;DHT22;2966;52.598;10.928;2022-08-03T04:16:18;16.50;99.90
5881;DHT22;2966;52.598;10.928;2022-08-03T04:18:51;16.60;99.90
5881;DHT22;2966;52.598;10.928;2022-08-03T04:21:20;16.60;99.90
5881;DHT22;2966;52.598;10.928;2022-08-03T04:23:51;16.60;99.90
5881;DHT22;2966;52.598;10.928;2022-08-03T04:26:21;16.70;99.90
5881;DHT22;2966;52.598;10.928;2022-08-03T04:28:48;16.70;99.90
5881;DHT22;2966;52.598;10.928;2022-08-03T04:31:19;16.70;99.90
5881;DHT22;2966;52.598;10.928;2022-08-03T04:33:47;16.70;99.90
5881;DHT22;2966;52.598;10.928;2022-08-03T04:36:22;16.80;99.90
5881;DHT22;2966;52.598;10.928;2022-08-03T04:38:58;16.80;99.90
5881;DHT22;2966;52.598;10.928;2022-08-03T04:41:26;16.80;99.90
5881;DHT22;2966;52.598;10.928;2022-08-03T04:43:54;16.80;99.90
5881;DHT22;2966;52.598;10.928;2022-08-03T04:46:26;16.80;99.90
5881;DHT22;2966;52.598;10.928;2022-08-03T04:48:54;16.80;99.90
5881;DHT22;2966;52.598;10.928;2022-08-03T04:51:21;16.90;99.90
5881;DHT22;2966;52.598;10.928;2022-08-03T04:53:48;17.00;99.90
5881;DHT22;2966;52.598;10.928;2022-08-03T04:56:14;17.20;99.90
5881;DHT22;2966;52.598;10.928;2022-08-03T04:58:41;17.30;99.90
5881;DHT22;2966;52.598;10.928;2022-08-03T05:01:08;17.50;99.90
5881;DHT22;2966;52.598;10.928;2022-08-03T05:03:36;17.60;99.90
5881;DHT22;2966;52.598;10.928;2022-08-03T05:06:03;17.80;99.90
5881;DHT22;2966;52.598;10.928;2022-08-03T05:08:30;18.00;99.90
5881;DHT22;2966;52.598;10.928;2022-08-03T05:10:57;18.10;99.90
5881;DHT22;2966;52.598;10.928;2022-08-03T05:13:23;18.30;99.90
5881;DHT22;2966;52.598;10.928;2022-08-03T05:15:50;18.50;99.90
5881;DHT22;2966;52.598;10.928;2022-08-03T05:18:17;18.60;99.90
5881;DHT22;2966;52.598;10.928;2022-08-03T05:20:45;18.80;99.90
5881;DHT22;2966;52.598;10.928;2022-08-03T05:23:14;18.80;99.90
5881;DHT22;2966;52.598;10.928;2022-08-03T05:25:41;19.00;99.90
5881;DHT22;2966;52.598;10.928;2022-08-03T05:28:08;19.20;99.90
5881;DHT22;2966;52.598;10.928;2022-08-03T05:30:35;19.50;99.90
5881;DHT22;2966;52.598;10.928;2022-08-03T05:33:02;19.50;99.90
5881;DHT22;2966;52.598;10.928;2022-08-03T05:35:30;19.70;99.90
5881;DHT22;2966;52.598;10.928;2022-08-03T05:37:58;19.80;99.90
5881;DHT22;2966;52.598;10.928;2022-08-03T05:40:24;20.00;99.90
5881;DHT22;2966;52.598;10.928;2022-08-03T05:42:51;20.20;99.90
5881;DHT22;2966;52.598;10.928;2022-08-03T05:45:18;20.30;99.90
5881;DHT22;2966;52.598;10.928;2022-08-03T05:47:45;20.50;99.90
5881;DHT22;2966;52.598;10.928;2022-08-03T05:50:13;20.60;99.90
5881;DHT22;2966;52.598;10.928;2022-08-03T05:52:40;20.70;99.90
5881;DHT22;2966;52.598;10.928;2022-08-03T05:55:09;20.90;99.90
5881;DHT22;2966;52.598;10.928;2022-08-03T05:57:37;21.10;99.90
5881;DHT22;2966;52.598;10.928;2022-08-03T06:00:05;21.20;99.90
5881;DHT22;2966;52.598;10.928;2022-08-03T06:02:32;21.40;99.90
5881;DHT22;2966;52.598;10.928;2022-08-03T06:04:59;21.50;99.90
5881;DHT22;2966;52.598;10.928;2022-08-03T06:07:25;21.80;99.90
5881;DHT22;2966;52.598;10.928;2022-08-03T06:09:53;21.90;99.90
5881;DHT22;2966;52.598;10.928;2022-08-03T06:12:21;22.10;99.90
5881;DHT22;2966;52.598;10.928;2022-08-03T06:14:47;22.30;99.90
5881;DHT22;2966;52.598;10.928;2022-08-03T06:17:14;22.40;99.90
5881;DHT22;2966;52.598;10.928;2022-08-03T06:19:41;22.50;99.90
5881;DHT22;2966;52.598;10.928;2022-08-03T06:22:08;22.60;99.90
5881;DHT22;2966;52.598;10.928;2022-08-03T06:24:36;22.70;99.90
5881;DHT22;2966;52.598;10.928;2022-08-03T06:27:03;22.90;99.90
5881;DHT22;2966;52.598;10.928;2022-08-03T06:29:33;23.00;99.90
5881;DHT22;2966;52.598;10.928;2022-08-03T06:32:00;23.10;99.90
5881;DHT22;2966;52.598;10.928;2022-08-03T06:34:27;23.10;99.90
5881;DHT22;2966;52.598;10.928;2022-08-03T06:36:54;23.20;99.90
5881;DHT22;2966;52.598;10.928;2022-08-03T06:39:22;23.30;99.90
5881;DHT22;2966;52.598;10.928;2022-08-03T06:41:50;23.40;99.90
5881;DHT22;2966;52.598;10.928;2022-08-03T06:44:18;23.40;99.90
5881;DHT22;2966;52.598;10.928;2022-08-03T06:46:47;23.50;99.90
5881;DHT22;2966;52.598;10.928;2022-08-03T06:49:19;23.70;99.90
5881;DHT22;2966;52.598;10.928;2022-08-03T06:51:46;23.80;99.90
5881;DHT22;2966;52.598;10.928;2022-08-03T06:54:15;23.80;99.90
5881;DHT22;2966;52.598;10.928;2022-08-03T06:56:43;23.90;99.90
5881;DHT22;2966;52.598;10.928;2022-08-03T06:59:11;24.20;99.90
5881;DHT22;2966;52.598;10.928;2022-08-03T07:01:40;24.10;99.90
5881;DHT22;2966;52.598;10.928;2022-08-03T07:04:09;24.30;99.90
5881;DHT22;2966;52.598;10.928;2022-08-03T07:06:37;24.40;99.90
5881;DHT22;2966;52.598;10.928;2022-08-03T07:09:04;24.60;99.90
5881;DHT22;2966;52.598;10.928;2022-08-03T07:11:32;24.60;99.90
5881;DHT22;2966;52.598;10.928;2022-08-03T07:13:59;24.80;99.90
5881;DHT22;2966;52.598;10.928;2022-08-03T07:16:27;25.00;99.90
5881;DHT22;2966;52.598;10.928;2022-08-03T07:18:54;25.10;99.90
5881;DHT22;2966;52.598;10.928;2022-08-03T07:21:24;25.10;99.90
5881;DHT22;2966;52.598;10.928;2022-08-03T07:23:51;25.10;99.90
5881;DHT22;2966;52.598;10.928;2022-08-03T07:26:19;25.20;99.90
5881;DHT22;2966;52.598;10.928;2022-08-03T07:28:46;25.30;99.90
5881;DHT22;2966;52.598;10.928;2022-08-03T07:31:16;25.50;99.90
5881;DHT22;2966;52.598;10.928;2022-08-03T07:33:44;25.60;99.90
5881;DHT22;2966;52.598;10.928;2022-08-03T07:36:11;25.60;99.90
5881;DHT22;2966;52.598;10.928;2022-08-03T07:38:40;25.70;99.90
5881;DHT22;2966;52.598;10.928;2022-08-03T07:41:07;25.90;99.90
5881;DHT22;2966;52.598;10.928;2022-08-03T07:43:35;26.00;99.90
5881;DHT22;2966;52.598;10.928;2022-08-03T07:46:02;26.20;99.90
5881;DHT22;2966;52.598;10.928;2022-08-03T07:48:29;26.30;99.90
5881;DHT22;2966;52.598;10.928;2022-08-03T07:50:56;26.40;99.90
5881;DHT22;2966;52.598;10.928;2022-08-03T07:53:23;26.40;99.90
5881;DHT22;2966;52.598;10.928;2022-08-03T07:55:51;26.50;99.90
5881;DHT22;2966;52.598;10.928;2022-08-03T07:58:19;26.60;99.90
5881;DHT22;2966;52.598;10.928;2022-08-03T08:00:47;26.70;99.90
5881;DHT22;2966;52.598;10.928;2022-08-03T08:03:15;26.60;99.90
5881;DHT22;2966;52.598;10.928;2022-08-03T08:05:44;26.70;99.90
5881;DHT22;2966;52.598;10.928;2022-08-03T08:08:11;26.70;99.90
5881;DHT22;2966;52.598;10.928;2022-08-03T08:10:38;26.70;99.90
5881;DHT22;2966;52.598;10.928;2022-08-03T08:13:05;26.80;99.90
5881;DHT22;2966;52.598;10.928;2022-08-03T08:15:32;26.90;99.90
5881;DHT22;2966;52.598;10.928;2022-08-03T08:18:00;26.80;99.90
5881;DHT22;2966;52.598;10.928;2022-08-03T08:20:28;26.90;99.90
5881;DHT22;2966;52.598;10.928;2022-08-03T08:22:56;26.90;99.90
5881;DHT22;2966;52.598;10.928;2022-08-03T08:25:23;27.10;99.90
5881;DHT22;2966;52.598;10.928;2022-08-03T08:27:50;27.10;99.90
5881;DHT22;2966;52.598;10.928;2022-08-03T08:30:20;27.20;99.90
5881;DHT22;2966;52.598;10.928;2022-08-03T08:32:48;27.40;99.90
5881;DHT22;2966;52.598;10.928;2022-08-03T08:35:16;27.40;99.90
5881;DHT22;2966;52.598;10.928;2022-08-03T08:37:42;27.60;99.90
5881;DHT22;2966;52.598;10.928;2022-08-03T08:40:10;27.70;99.90
5881;DHT22;2966;52.598;10.928;2022-08-03T08:42:38;27.90;99.90
5881;DHT22;2966;52.598;10.928;2022-08-03T08:45:06;28.20;99.90
5881;DHT22;2966;52.598;10.928;2022-08-03T08:47:37;28.10;99.90
5881;DHT22;2966;52.598;10.928;2022-08-03T08:50:05;28.00;99.90
5881;DHT22;2966;52.598;10.928;2022-08-03T08:52:33;28.00;99.90
5881;DHT22;2966;52.598;10.928;2022-08-03T08:55:04;28.00;99.90
5881;DHT22;2966;52.598;10.928;2022-08-03T08:57:34;28.20;99.90
5881;DHT22;2966;52.598;10.928;2022-08-03T09:00:04;28.20;99.90
5881;DHT22;2966;52.598;10.928;2022-08-03T09:02:31;28.50;99.90
5881;DHT22;2966;52.598;10.928;2022-08-03T09:04:59;28.50;99.90
5881;DHT22;2966;52.598;10.928;2022-08-03T09:07:27;28.40;99.90
5881;DHT22;2966;52.598;10.928;2022-08-03T09:09:54;28.30;99.90
5881;DHT22;2966;52.598;10.928;2022-08-03T09:12:21;28.40;99.90
5881;DHT22;2966;52.598;10.928;2022-08-03T09:14:47;28.50;99.90
5881;DHT22;2966;52.598;10.928;2022-08-03T09:17:15;28.50;99.90
5881;DHT22;2966;52.598;10.928;2022-08-03T09:19:42;28.60;99.90
5881;DHT22;2966;52.598;10.928;2022-08-03T09:22:11;28.80;99.90
5881;DHT22;2966;52.598;10.928;2022-08-03T09:24:53;28.90;99.90
5881;DHT22;2966;52.598;10.928;2022-08-03T09:27:20;29.00;99.90
5881;DHT22;2966;52.598;10.928;2022-08-03T09:29:47;29.10;99.90
5881;DHT22;2966;52.598;10.928;2022-08-03T09:32:14;29.10;99.90
5881;DHT22;2966;52.598;10.928;2022-08-03T09:34:41;29.00;99.90
5881;DHT22;2966;52.598;10.928;2022-08-03T09:37:14;29.10;99.90
5881;DHT22;2966;52.598;10.928;2022-08-03T09:39:41;28.90;99.90
5881;DHT22;2966;52.598;10.928;2022-08-03T09:42:09;29.10;99.90
5881;DHT22;2966;52.598;10.928;2022-08-03T09:44:37;29.00;99.90
5881;DHT22;2966;52.598;10.928;2022-08-03T09:47:04;29.10;99.90
5881;DHT22;2966;52.598;10.928;2022-08-03T09:49:31;29.30;99.90
5881;DHT22;2966;52.598;10.928;2022-08-03T09:52:00;29.40;99.90
5881;DHT22;2966;52.598;10.928;2022-08-03T09:54:30;29.30;99.90
5881;DHT22;2966;52.598;10.928;2022-08-03T09:56:58;29.40;99.90
5881;DHT22;2966;52.598;10.928;2022-08-03T09:59:27;29.30;99.90
5881;DHT22;2966;52.598;10.928;2022-08-03T10:01:55;29.00;99.90
5881;DHT22;2966;52.598;10.928;2022-08-03T10:04:22;29.00;99.90
5881;DHT22;2966;52.598;10.928;2022-08-03T10:07:05;29.10;99.90
5881;DHT22;2966;52.598;10.928;2022-08-03T10:09:35;29.30;99.90
5881;DHT22;2966;52.598;10.928;2022-08-03T10:12:07;29.50;99.90
5881;DHT22;2966;52.598;10.928;2022-08-03T10:14:36;29.70;99.90
5881;DHT22;2966;52.598;10.928;2022-08-03T10:17:03;29.80;99.90
5881;DHT22;2966;52.598;10.928;2022-08-03T10:19:30;29.80;99.90
5881;DHT22;2966;52.598;10.928;2022-08-03T10:22:01;29.80;99.90
5881;DHT22;2966;52.598;10.928;2022-08-03T10:24:29;29.90;99.90
5881;DHT22;2966;52.598;10.928;2022-08-03T10:27:02;29.70;99.90
5881;DHT22;2966;52.598;10.928;2022-08-03T10:29:36;29.80;99.90
5881;DHT22;2966;52.598;10.928;2022-08-03T10:32:06;29.70;99.90
5881;DHT22;2966;52.598;10.928;2022-08-03T10:34:36;29.50;99.90
5881;DHT22;2966;52.598;10.928;2022-08-03T10:37:09;29.90;99.90
5881;DHT22;2966;52.598;10.928;2022-08-03T10:39:36;30.10;99.90
5881;DHT22;2966;52.598;10.928;2022-08-03T10:42:04;30.20;99.90
5881;DHT22;2966;52.598;10.928;2022-08-03T10:44:34;29.90;99.90
5881;DHT22;2966;52.598;10.928;2022-08-03T10:47:03;29.70;99.90
5881;DHT22;2966;52.598;10.928;2022-08-03T10:49:30;29.80;99.90
5881;DHT22;2966;52.598;10.928;2022-08-03T10:51:57;30.00;99.90
5881;DHT22;2966;52.598;10.928;2022-08-03T10:54:40;29.70;99.90
5881;DHT22;2966;52.598;10.928;2022-08-03T10:57:44;29.50;99.90
5881;DHT22;2966;52.598;10.928;2022-08-03T11:00:11;29.40;99.90
5881;DHT22;2966;52.598;10.928;2022-08-03T11:05:43;30.00;99.90
5881;DHT22;2966;52.598;10.928;2022-08-03T11:13:58;30.30;99.90
5881;DHT22;2966;52.598;10.928;2022-08-03T11:16:26;30.20;99.90
5881;DHT22;2966;52.598;10.928;2022-08-03T11:18:57;30.20;99.90
5881;DHT22;2966;52.598;10.928;2022-08-03T11:21:53;30.50;99.90
5881;DHT22;2966;52.598;10.928;2022-08-03T11:27:26;30.80;99.90
5881;DHT22;2966;52.598;10.928;2022-08-03T11:29:56;30.80;99.90
5881;DHT22;2966;52.598;10.928;2022-08-03T11:32:52;30.80;99.90
5881;DHT22;2966;52.598;10.928;2022-08-03T11:35:20;30.80;99.90
5881;DHT22;2966;52.598;10.928;2022-08-03T11:38:04;30.80;99.90
5881;DHT22;2966;52.598;10.928;2022-08-03T11:40:33;30.90;99.90
5881;DHT22;2966;52.598;10.928;2022-08-03T11:43:01;30.70;99.90
5881;DHT22;2966;52.598;10.928;2022-08-03T11:45:29;30.90;99.90
5881;DHT22;2966;52.598;10.928;2022-08-03T11:47:56;31.20;99.90
5881;DHT22;2966;52.598;10.928;2022-08-03T11:50:24;31.20;99.90
5881;DHT22;2966;52.598;10.928;2022-08-03T11:52:51;31.20;99.90
5881;DHT22;2966;52.598;10.928;2022-08-03T11:55:19;31.40;99.90
5881;DHT22;2966;52.598;10.928;2022-08-03T11:57:47;31.70;99.90
5881;DHT22;2966;52.598;10.928;2022-08-03T12:00:25;31.70;99.90
5881;DHT22;2966;52.598;10.928;2022-08-03T12:03:02;31.30;99.10
5881;DHT22;2966;52.598;10.928;2022-08-03T12:05:36;31.40;99.90
5881;DHT22;2966;52.598;10.928;2022-08-03T12:08:03;31.50;99.90
5881;DHT22;2966;52.598;10.928;2022-08-03T12:10:31;31.30;99.90
5881;DHT22;2966;52.598;10.928;2022-08-03T12:12:59;31.30;99.90
5881;DHT22;2966;52.598;10.928;2022-08-03T12:15:27;31.10;99.60
5881;DHT22;2966;52.598;10.928;2022-08-03T12:17:54;31.00;99.90
5881;DHT22;2966;52.598;10.928;2022-08-03T12:20:30;31.30;99.80
5881;DHT22;2966;52.598;10.928;2022-08-03T12:23:02;31.20;99.80
5881;DHT22;2966;52.598;10.928;2022-08-03T12:25:30;31.10;99.20
5881;DHT22;2966;52.598;10.928;2022-08-03T12:28:06;31.00;99.90
5881;DHT22;2966;52.598;10.928;2022-08-03T12:30:34;31.10;99.70
5881;DHT22;2966;52.598;10.928;2022-08-03T12:33:17;31.00;99.20
5881;DHT22;2966;52.598;10.928;2022-08-03T12:35:51;31.20;99.30
5881;DHT22;2966;52.598;10.928;2022-08-03T12:38:26;31.10;99.90
5881;DHT22;2966;52.598;10.928;2022-08-03T12:41:01;31.40;99.90
5881;DHT22;2966;52.598;10.928;2022-08-03T12:43:28;31.80;99.90
5881;DHT22;2966;52.598;10.928;2022-08-03T12:46:13;32.00;99.90
5881;DHT22;2966;52.598;10.928;2022-08-03T12:48:59;32.40;99.90
5881;DHT22;2966;52.598;10.928;2022-08-03T12:51:28;32.40;98.50
5881;DHT22;2966;52.598;10.928;2022-08-03T12:53:56;32.20;99.90
5881;DHT22;2966;52.598;10.928;2022-08-03T12:56:24;32.40;99.90
5881;DHT22;2966;52.598;10.928;2022-08-03T12:58:50;32.50;99.90
5881;DHT22;2966;52.598;10.928;2022-08-03T13:01:18;32.40;98.10
5881;DHT22;2966;52.598;10.928;2022-08-03T13:03:49;32.30;97.80
5881;DHT22;2966;52.598;10.928;2022-08-03T13:06:18;32.40;98.50
5881;DHT22;2966;52.598;10.928;2022-08-03T13:08:46;32.60;97.90
5881;DHT22;2966;52.598;10.928;2022-08-03T13:11:17;32.30;96.80
5881;DHT22;2966;52.598;10.928;2022-08-03T13:13:44;32.30;98.90
5881;DHT22;2966;52.598;10.928;2022-08-03T13:16:11;32.20;97.00
5881;DHT22;2966;52.598;10.928;2022-08-03T13:18:38;32.00;97.90
5881;DHT22;2966;52.598;10.928;2022-08-03T13:21:04;32.00;96.40
5881;DHT22;2966;52.598;10.928;2022-08-03T13:23:31;31.90;96.50
5881;DHT22;2966;52.598;10.928;2022-08-03T13:25:59;32.00;96.60
5881;DHT22;2966;52.598;10.928;2022-08-03T13:28:26;31.60;97.60
5881;DHT22;2966;52.598;10.928;2022-08-03T13:30:52;31.50;97.70
5881;DHT22;2966;52.598;10.928;2022-08-03T13:33:19;31.60;96.70
5881;DHT22;2966;52.598;10.928;2022-08-03T13:35:46;31.80;97.00
5881;DHT22;2966;52.598;10.928;2022-08-03T13:38:12;32.00;97.20
5881;DHT22;2966;52.598;10.928;2022-08-03T13:40:41;32.10;96.20
5881;DHT22;2966;52.598;10.928;2022-08-03T13:43:09;32.20;96.40
5881;DHT22;2966;52.598;10.928;2022-08-03T13:45:36;32.30;97.00
5881;DHT22;2966;52.598;10.928;2022-08-03T13:48:05;32.50;96.80
5881;DHT22;2966;52.598;10.928;2022-08-03T13:50:32;32.60;96.40
5881;DHT22;2966;52.598;10.928;2022-08-03T13:53:02;32.50;95.20
5881;DHT22;2966;52.598;10.928;2022-08-03T13:55:28;32.40;96.00
5881;DHT22;2966;52.598;10.928;2022-08-03T13:57:55;32.50;95.10
5881;DHT22;2966;52.598;10.928;2022-08-03T14:00:23;32.60;94.70
5881;DHT22;2966;52.598;10.928;2022-08-03T14:02:50;32.30;95.50
5881;DHT22;2966;52.598;10.928;2022-08-03T14:05:17;31.70;94.80
5881;DHT22;2966;52.598;10.928;2022-08-03T14:07:44;31.80;96.40
5881;DHT22;2966;52.598;10.928;2022-08-03T14:10:11;32.30;96.50
5881;DHT22;2966;52.598;10.928;2022-08-03T14:12:39;32.30;94.60
5881;DHT22;2966;52.598;10.928;2022-08-03T14:15:07;32.30;94.80
5881;DHT22;2966;52.598;10.928;2022-08-03T14:17:35;32.40;95.50
5881;DHT22;2966;52.598;10.928;2022-08-03T14:20:03;32.50;94.60
5881;DHT22;2966;52.598;10.928;2022-08-03T14:22:31;32.60;95.00
5881;DHT22;2966;52.598;10.928;2022-08-03T14:24:57;32.60;93.60
5881;DHT22;2966;52.598;10.928;2022-08-03T14:27:24;32.70;94.20
5881;DHT22;2966;52.598;10.928;2022-08-03T14:29:51;33.20;94.60
5881;DHT22;2966;52.598;10.928;2022-08-03T14:32:17;33.20;94.10
5881;DHT22;2966;52.598;10.928;2022-08-03T14:34:48;33.10;93.20
5881;DHT22;2966;52.598;10.928;2022-08-03T14:37:14;32.70;93.10
5881;DHT22;2966;52.598;10.928;2022-08-03T14:39:41;32.50;93.40
5881;DHT22;2966;52.598;10.928;2022-08-03T14:42:08;32.60;94.30
5881;DHT22;2966;52.598;10.928;2022-08-03T14:44:34;32.50;93.80
5881;DHT22;2966;52.598;10.928;2022-08-03T14:47:01;32.70;93.80
5881;DHT22;2966;52.598;10.928;2022-08-03T14:49:28;32.80;94.10
5881;DHT22;2966;52.598;10.928;2022-08-03T14:51:56;33.10;95.30
5881;DHT22;2966;52.598;10.928;2022-08-03T14:54:22;33.40;93.60
5881;DHT22;2966;52.598;10.928;2022-08-03T14:56:49;33.40;93.20
5881;DHT22;2966;52.598;10.928;2022-08-03T14:59:15;33.40;91.80
5881;DHT22;2966;52.598;10.928;2022-08-03T15:01:42;33.20;92.10
5881;DHT22;2966;52.598;10.928;2022-08-03T15:04:12;32.90;91.10
5881;DHT22;2966;52.598;10.928;2022-08-03T15:06:38;32.60;93.50
5881;DHT22;2966;52.598;10.928;2022-08-03T15:09:06;32.70;92.20
5881;DHT22;2966;52.598;10.928;2022-08-03T15:11:34;33.00;93.10
5881;DHT22;2966;52.598;10.928;2022-08-03T15:14:01;33.20;93.50
5881;DHT22;2966;52.598;10.928;2022-08-03T15:16:28;33.30;91.40
5881;DHT22;2966;52.598;10.928;2022-08-03T15:18:54;33.70;91.80
5881;DHT22;2966;52.598;10.928;2022-08-03T15:21:21;34.10;90.50
5881;DHT22;2966;52.598;10.928;2022-08-03T15:23:47;34.40;90.90
5881;DHT22;2966;52.598;10.928;2022-08-03T15:26:15;34.20;90.00
5881;DHT22;2966;52.598;10.928;2022-08-03T15:28:42;34.20;87.90
5881;DHT22;2966;52.598;10.928;2022-08-03T15:31:09;33.80;88.30
5881;DHT22;2966;52.598;10.928;2022-08-03T15:33:36;34.20;89.60
5881;DHT22;2966;52.598;10.928;2022-08-03T15:36:03;34.30;89.50
5881;DHT22;2966;52.598;10.928;2022-08-03T15:38:30;34.60;87.20
5881;DHT22;2966;52.598;10.928;2022-08-03T15:40:56;34.60;87.50
5881;DHT22;2966;52.598;10.928;2022-08-03T15:43:25;34.20;88.40
5881;DHT22;2966;52.598;10.928;2022-08-03T15:45:51;34.20;86.10
5881;DHT22;2966;52.598;10.928;2022-08-03T15:48:18;34.30;90.20
5881;DHT22;2966;52.598;10.928;2022-08-03T15:50:47;34.20;89.20
5881;DHT22;2966;52.598;10.928;2022-08-03T15:53:14;35.00;88.40
5881;DHT22;2966;52.598;10.928;2022-08-03T15:55:41;35.40;85.70
5881;DHT22;2966;52.598;10.928;2022-08-03T15:58:08;35.30;83.70
5881;DHT22;2966;52.598;10.928;2022-08-03T16:00:36;34.90;86.80
5881;DHT22;2966;52.598;10.928;2022-08-03T16:03:03;35.10;84.90
5881;DHT22;2966;52.598;10.928;2022-08-03T16:05:30;35.10;84.40
5881;DHT22;2966;52.598;10.928;2022-08-03T16:07:57;35.00;83.10